Genco Leader — VRYR8 — position and weather

sailwx.info

Track history (hours):
 
Tides and Currents Weather Stations Pressure Air Temp Water Temp Dewpoint Dewpoint Depression Visibility Wind Speed Wind Dir Waves Ship Positions

Genco Leader

Last reported at 2014-Oct-30 14:24 UTC. Time now 2014-Oct-31 07:04 UTC.
Position N 38°00' E 122°07'.

Length 225 m; draft 10.3 m.

Type: Cargo ship. MMSI: 477132000.

Date/timePositionNaut miles runAvg speedWind from/ knotsBaromVisibWave heightAir tempDewpointWater temp
2014-Oct-30 14:24N 38°00' E 122°07'20911.7
2014-Oct-29 20:33N 38°58' E 117°51'3 3.2
2014-Oct-29 19:31N 38°58' E 117°46'0 0.0
2014-Oct-29 18:31N 38°58' E 117°46'0 0.0
2014-Oct-29 17:19N 38°58' E 117°46'0 0.0
2014-Oct-29 16:31N 38°58' E 117°46'0 0.0
2014-Oct-29 15:19N 38°58' E 117°46'0 0.0
2014-Oct-29 14:31N 38°58' E 117°46'0 0.0
2014-Oct-29 13:31N 38°58' E 117°46'0 0.0
2014-Oct-29 12:31N 38°58' E 117°46'0 0.0
2014-Oct-29 11:25N 38°58' E 117°46'0 0.0
2014-Oct-29 10:31N 38°58' E 117°46'0 0.0
2014-Oct-29 09:31N 38°58' E 117°46'0 0.0
2014-Oct-29 08:25N 38°58' E 117°46'0 0.0
2014-Oct-29 07:25N 38°58' E 117°46'0 0.0
2014-Oct-29 06:31N 38°58' E 117°46'0 0.0
2014-Oct-29 05:31N 38°58' E 117°46'0 0.0
2014-Oct-29 04:31N 38°58' E 117°46'0 0.0
2014-Oct-29 03:31N 38°58' E 117°46'0 0.0
2014-Oct-29 02:31N 38°58' E 117°46'0 0.0
2014-Oct-29 01:31N 38°58' E 117°46'0 0.0
2014-Oct-29 00:31N 38°58' E 117°46'0 0.0
2014-Oct-28 23:25N 38°58' E 117°46'0 0.0
2014-Oct-28 22:25N 38°58' E 117°46'0 0.1
2014-Oct-28 21:31N 38°58' E 117°46'0 0.0
2014-Oct-28 20:25N 38°58' E 117°46'0 0.0
2014-Oct-28 19:31N 38°58' E 117°46'0 0.0
2014-Oct-28 18:31N 38°58' E 117°46'0 0.0
2014-Oct-28 17:31N 38°58' E 117°46'0 0.0
2014-Oct-28 16:31N 38°58' E 117°46'0 0.0
2014-Oct-28 15:13N 38°58' E 117°46'0 0.0
2014-Oct-28 14:31N 38°58' E 117°46'0 0.0
2014-Oct-28 13:32N 38°58' E 117°46'0 0.0
2014-Oct-28 12:31N 38°58' E 117°46'0 0.0
2014-Oct-28 11:25N 38°58' E 117°46'0 0.0
2014-Oct-28 10:31N 38°58' E 117°46'0 0.0
2014-Oct-28 09:25N 38°58' E 117°46'0 0.0
2014-Oct-28 08:31N 38°58' E 117°46'0 0.0
2014-Oct-28 07:26N 38°58' E 117°46'1 1.3
2014-Oct-28 06:33N 38°58' E 117°48'  
2014-Oct-24 12:33N 38°25' E 121°22'1212.4
2014-Oct-24 11:33N 38°19' E 121°36'1212.3
2014-Oct-24 10:33N 38°14' E 121°50'7212.0
2014-Oct-24 04:32N 37°42' E 123°13'2611.6
2014-Oct-24 02:17N 37°32' E 123°43'3 3.8
2014-Oct-24 01:27N 37°31' E 123°46'25 8.5
2014-Oct-23 22:29N 37°19' E 124°15'  
Track history (hours):
 
Tides and Currents Weather Stations Pressure Air Temp Water Temp Dewpoint Dewpoint Depression Visibility Wind Speed Wind Dir Waves Ship Positions

Genco Leader

Last reported at 2014-Oct-30 14:24 UTC. Time now 2014-Oct-31 07:04 UTC.
Position N 38°00' E 122°07'.

Length 225 m; draft 10.3 m.

Type: Cargo ship. MMSI: 477132000.

Date/timePositionNaut miles runAvg speedWind from/ knotsBaromVisibWave heightAir tempDewpointWater temp
2014-Oct-30 14:24N 38°00' E 122°07'20911.7
2014-Oct-29 20:33N 38°58' E 117°51'3 3.2
2014-Oct-29 19:31N 38°58' E 117°46'0 0.0
2014-Oct-29 18:31N 38°58' E 117°46'0 0.0
2014-Oct-29 17:19N 38°58' E 117°46'0 0.0
2014-Oct-29 16:31N 38°58' E 117°46'0 0.0
2014-Oct-29 15:19N 38°58' E 117°46'0 0.0
2014-Oct-29 14:31N 38°58' E 117°46'0 0.0
2014-Oct-29 13:31N 38°58' E 117°46'0 0.0
2014-Oct-29 12:31N 38°58' E 117°46'0 0.0
2014-Oct-29 11:25N 38°58' E 117°46'0 0.0
2014-Oct-29 10:31N 38°58' E 117°46'0 0.0
2014-Oct-29 09:31N 38°58' E 117°46'0 0.0
2014-Oct-29 08:25N 38°58' E 117°46'0 0.0
2014-Oct-29 07:25N 38°58' E 117°46'0 0.0
2014-Oct-29 06:31N 38°58' E 117°46'0 0.0
2014-Oct-29 05:31N 38°58' E 117°46'0 0.0
2014-Oct-29 04:31N 38°58' E 117°46'0 0.0
2014-Oct-29 03:31N 38°58' E 117°46'0 0.0
2014-Oct-29 02:31N 38°58' E 117°46'0 0.0
2014-Oct-29 01:31N 38°58' E 117°46'0 0.0
2014-Oct-29 00:31N 38°58' E 117°46'0 0.0
2014-Oct-28 23:25N 38°58' E 117°46'0 0.0
2014-Oct-28 22:25N 38°58' E 117°46'0 0.1
2014-Oct-28 21:31N 38°58' E 117°46'0 0.0
2014-Oct-28 20:25N 38°58' E 117°46'0 0.0
2014-Oct-28 19:31N 38°58' E 117°46'0 0.0
2014-Oct-28 18:31N 38°58' E 117°46'0 0.0
2014-Oct-28 17:31N 38°58' E 117°46'0 0.0
2014-Oct-28 16:31N 38°58' E 117°46'0 0.0
2014-Oct-28 15:13N 38°58' E 117°46'0 0.0
2014-Oct-28 14:31N 38°58' E 117°46'0 0.0
2014-Oct-28 13:32N 38°58' E 117°46'0 0.0
2014-Oct-28 12:31N 38°58' E 117°46'0 0.0
2014-Oct-28 11:25N 38°58' E 117°46'0 0.0
2014-Oct-28 10:31N 38°58' E 117°46'0 0.0
2014-Oct-28 09:25N 38°58' E 117°46'0 0.0
2014-Oct-28 08:31N 38°58' E 117°46'0 0.0
2014-Oct-28 07:26N 38°58' E 117°46'1 1.3
2014-Oct-28 06:33N 38°58' E 117°48'  
2014-Oct-24 12:33N 38°25' E 121°22'1212.4
2014-Oct-24 11:33N 38°19' E 121°36'1212.3
2014-Oct-24 10:33N 38°14' E 121°50'7212.0
2014-Oct-24 04:32N 37°42' E 123°13'2611.6
2014-Oct-24 02:17N 37°32' E 123°43'3 3.8
2014-Oct-24 01:27N 37°31' E 123°46'25 8.5
2014-Oct-23 22:29N 37°19' E 124°15'  

Dump ship's entire track history